createdAt,value
2022-10-05T00:04:10.708Z,11.14
2022-10-05T00:09:29.259Z,11.04
2022-10-05T00:14:21.449Z,11.00
2022-10-05T00:19:21.360Z,10.94
2022-10-05T00:24:21.310Z,10.94
2022-10-05T00:29:21.202Z,10.87
2022-10-05T00:34:21.174Z,10.78
2022-10-05T00:39:21.102Z,10.68
2022-10-05T00:44:21.066Z,10.59
2022-10-05T00:49:20.967Z,10.48
2022-10-05T00:54:20.906Z,10.38
2022-10-05T00:59:20.819Z,10.34
2022-10-05T01:04:20.799Z,10.30
2022-10-05T01:09:20.698Z,10.28
2022-10-05T01:14:20.646Z,10.37
2022-10-05T01:19:20.572Z,10.37
2022-10-05T01:24:20.482Z,10.42
2022-10-05T01:29:20.419Z,10.46
2022-10-05T01:34:20.366Z,10.46
2022-10-05T01:39:20.322Z,10.42
2022-10-05T01:44:20.229Z,10.48
2022-10-05T01:49:20.145Z,10.46
2022-10-05T01:54:20.174Z,10.41
2022-10-05T01:59:20.025Z,10.40
2022-10-05T02:04:42.753Z,10.38
2022-10-05T02:09:20.895Z,10.40
2022-10-05T02:14:19.829Z,10.30
2022-10-05T02:19:19.739Z,10.15
2022-10-05T02:24:21.085Z,10.01
2022-10-05T02:29:19.621Z,9.97
2022-10-05T02:34:19.546Z,9.91
2022-10-05T02:39:19.481Z,9.87
2022-10-05T02:44:19.420Z,9.86
2022-10-05T02:49:19.357Z,9.83
2022-10-05T02:54:19.299Z,9.86
2022-10-05T02:59:19.174Z,9.80
2022-10-05T03:04:19.153Z,9.82
2022-10-05T03:09:19.061Z,9.80
2022-10-05T03:14:19.002Z,9.74
2022-10-05T03:19:18.934Z,9.72
2022-10-05T03:24:18.882Z,9.66
2022-10-05T03:29:18.777Z,9.64
2022-10-05T03:34:18.744Z,9.50
2022-10-05T03:39:18.680Z,9.36
2022-10-05T03:44:18.614Z,9.31
2022-10-05T03:49:18.537Z,9.16
2022-10-05T03:54:18.457Z,9.03
2022-10-05T03:59:18.415Z,8.91
2022-10-05T04:04:20.182Z,8.89
2022-10-05T04:09:18.248Z,8.79
2022-10-05T04:14:18.180Z,8.67
2022-10-05T04:19:33.829Z,8.61
2022-10-05T04:24:26.743Z,8.79
2022-10-05T04:29:26.681Z,8.94
2022-10-05T04:34:26.609Z,9.10
2022-10-05T04:39:26.521Z,9.37
2022-10-05T04:44:26.463Z,9.41
2022-10-05T04:49:26.378Z,9.43
2022-10-05T04:54:26.343Z,9.36
2022-10-05T04:59:26.274Z,9.37
2022-10-05T05:04:26.212Z,9.41
2022-10-05T05:09:26.179Z,9.56
2022-10-05T05:14:26.086Z,9.65
2022-10-05T05:19:26.029Z,9.74
2022-10-05T05:24:25.928Z,9.86
2022-10-05T05:29:25.924Z,9.94
2022-10-05T05:34:25.806Z,9.99
2022-10-05T05:39:25.726Z,10.01
2022-10-05T05:44:25.673Z,10.12
2022-10-05T05:49:25.589Z,10.12
2022-10-05T05:54:25.534Z,10.15
2022-10-05T05:59:25.484Z,10.23
2022-10-05T06:04:25.385Z,10.31
2022-10-05T06:09:25.328Z,10.37
2022-10-05T06:14:25.252Z,10.42
2022-10-05T06:19:25.182Z,10.53
2022-10-05T06:24:25.247Z,10.63
2022-10-05T06:29:25.058Z,10.64
2022-10-05T06:34:24.999Z,10.75
2022-10-05T06:39:24.986Z,10.92
2022-10-05T06:44:24.850Z,11.04
2022-10-05T06:49:24.809Z,11.32
2022-10-05T06:54:24.734Z,12.17
2022-10-05T06:59:24.670Z,12.70
2022-10-05T07:04:24.582Z,13.37
2022-10-05T07:09:24.798Z,13.33
2022-10-05T07:14:24.475Z,14.53
2022-10-05T07:19:24.382Z,15.36
2022-10-05T07:24:24.334Z,15.47
2022-10-05T07:29:24.243Z,16.81
2022-10-05T07:34:24.192Z,17.87
2022-10-05T07:39:36.791Z,16.87
2022-10-05T07:44:25.042Z,15.90
2022-10-05T07:49:23.989Z,15.28
2022-10-05T07:54:24.063Z,15.00
2022-10-05T07:59:23.830Z,15.03
2022-10-05T08:04:23.774Z,15.10
2022-10-05T08:09:23.721Z,15.11
2022-10-05T08:14:23.617Z,15.09
2022-10-05T08:19:23.590Z,15.22
2022-10-05T08:24:23.506Z,15.35
2022-10-05T08:29:23.520Z,15.55
2022-10-05T08:34:23.374Z,15.73
2022-10-05T08:39:23.304Z,15.95
2022-10-05T08:44:23.266Z,16.04
2022-10-05T08:49:23.234Z,16.23
2022-10-05T08:54:23.105Z,16.33
2022-10-05T08:59:23.029Z,16.46
2022-10-05T09:04:22.955Z,16.32
2022-10-05T09:09:22.897Z,16.43
2022-10-05T09:14:22.818Z,16.78
2022-10-05T09:19:22.948Z,16.99
2022-10-05T09:24:22.753Z,17.14
2022-10-05T09:29:22.637Z,17.41
2022-10-05T09:34:22.554Z,17.65
2022-10-05T09:39:22.503Z,17.70
2022-10-05T09:44:22.484Z,18.15
2022-10-05T09:49:22.344Z,19.73
2022-10-05T09:54:22.282Z,22.69
2022-10-05T09:59:22.279Z,24.78
2022-10-05T10:04:22.149Z,26.74
2022-10-05T10:09:22.076Z,26.41
2022-10-05T10:14:22.029Z,22.15
2022-10-05T10:19:21.966Z,22.07
2022-10-05T10:24:21.886Z,23.65
2022-10-05T10:29:21.841Z,22.76
2022-10-05T10:34:21.754Z,23.02
2022-10-05T10:39:21.679Z,24.39
2022-10-05T10:44:21.607Z,26.22
2022-10-05T10:49:21.547Z,26.96
2022-10-05T10:54:21.490Z,26.74
2022-10-05T10:59:21.425Z,26.22
2022-10-05T11:04:21.332Z,26.38
2022-10-05T11:09:21.284Z,25.83
2022-10-05T11:14:21.213Z,22.54
2022-10-05T11:19:21.702Z,20.96
2022-10-05T11:24:21.064Z,20.36
2022-10-05T11:29:21.049Z,19.99
2022-10-05T11:34:20.938Z,21.60
2022-10-05T11:39:20.875Z,23.44
2022-10-05T11:44:20.811Z,24.26
2022-10-05T11:49:20.909Z,24.70
2022-10-05T11:54:20.673Z,23.83
2022-10-05T11:59:20.617Z,23.91
2022-10-05T12:04:20.536Z,23.80
2022-10-05T12:09:20.468Z,23.73
2022-10-05T12:14:20.397Z,23.73
2022-10-05T12:19:20.341Z,23.05
2022-10-05T12:24:24.581Z,22.39
2022-10-05T12:29:21.216Z,21.77
2022-10-05T12:34:20.158Z,20.77
2022-10-05T12:39:20.058Z,20.63
2022-10-05T12:44:20.077Z,20.84
2022-10-05T12:49:19.934Z,20.90
2022-10-05T12:54:19.844Z,20.66
2022-10-05T12:59:19.787Z,20.32
2022-10-05T13:04:19.726Z,20.55
2022-10-05T13:09:19.698Z,20.07
2022-10-05T13:14:19.576Z,19.77
2022-10-05T13:19:19.652Z,20.07
2022-10-05T13:24:19.481Z,19.85
2022-10-05T13:29:19.393Z,20.18
2022-10-05T13:34:19.398Z,20.25
2022-10-05T13:39:19.264Z,20.31
2022-10-05T13:44:19.197Z,20.19
2022-10-05T13:49:19.099Z,20.24
2022-10-05T13:54:19.048Z,20.14
2022-10-05T13:59:18.981Z,20.32
2022-10-05T14:04:18.914Z,20.32
2022-10-05T14:09:18.845Z,20.31
2022-10-05T14:14:18.846Z,20.19
2022-10-05T14:19:18.729Z,20.21
2022-10-05T14:24:32.064Z,20.19
2022-10-05T14:29:19.577Z,20.25
2022-10-05T14:34:18.517Z,20.19
2022-10-05T14:39:18.441Z,20.07
2022-10-05T14:44:18.366Z,20.13
2022-10-05T14:49:18.306Z,20.26
2022-10-05T14:54:18.246Z,20.26
2022-10-05T14:59:18.192Z,20.28
2022-10-05T15:04:18.105Z,20.36
2022-10-05T15:09:18.062Z,20.40
2022-10-05T15:14:18.023Z,20.32
2022-10-05T15:19:17.901Z,20.34
2022-10-05T15:24:17.827Z,20.24
2022-10-05T15:29:17.768Z,20.25
2022-10-05T15:34:17.698Z,20.22
2022-10-05T15:39:17.621Z,20.14
2022-10-05T15:44:17.559Z,20.07
2022-10-05T15:49:17.482Z,19.96
2022-10-05T15:54:17.420Z,19.92
2022-10-05T15:59:17.888Z,19.91
2022-10-05T16:04:17.287Z,19.92
2022-10-05T16:09:17.199Z,19.85
2022-10-05T16:14:17.164Z,19.74
2022-10-05T16:19:17.108Z,19.63
2022-10-05T16:24:18.842Z,19.45
2022-10-05T16:29:16.958Z,19.31
2022-10-05T16:34:16.879Z,19.21
2022-10-05T16:39:16.808Z,19.04
2022-10-05T16:44:16.757Z,18.83
2022-10-05T16:49:18.059Z,18.65
2022-10-05T16:54:16.612Z,18.45
2022-10-05T16:59:16.531Z,18.19
2022-10-05T17:04:16.505Z,18.03
2022-10-05T17:09:16.431Z,17.72
2022-10-05T17:14:16.343Z,17.42
2022-10-05T17:19:16.314Z,17.24
2022-10-05T17:24:16.218Z,17.19
2022-10-05T17:29:16.140Z,17.19
2022-10-05T17:34:17.893Z,17.16
2022-10-05T17:39:15.968Z,17.11
2022-10-05T17:44:15.940Z,17.11
2022-10-05T17:49:15.901Z,17.06
2022-10-05T17:54:15.798Z,16.99
2022-10-05T17:59:15.720Z,16.93
2022-10-05T18:04:15.681Z,16.90
2022-10-05T18:09:15.586Z,16.89
2022-10-05T18:14:15.538Z,16.89
2022-10-05T18:19:15.482Z,16.89
2022-10-05T18:24:15.405Z,16.86
2022-10-05T18:29:15.305Z,16.78
2022-10-05T18:34:15.262Z,16.66
2022-10-05T18:39:15.192Z,16.56
2022-10-05T18:44:15.119Z,16.46
2022-10-05T18:49:15.082Z,16.35
2022-10-05T18:54:14.976Z,16.39
2022-10-05T18:59:14.920Z,16.46
2022-10-05T19:04:14.859Z,16.43
2022-10-05T19:09:14.770Z,16.41
2022-10-05T19:14:14.732Z,16.39
2022-10-05T19:19:14.653Z,16.39
2022-10-05T19:24:14.585Z,16.33
2022-10-05T19:29:14.515Z,16.31
2022-10-05T19:34:14.526Z,16.29
2022-10-05T19:39:14.348Z,16.28
2022-10-05T19:44:14.302Z,16.26
2022-10-05T19:49:14.243Z,16.24
2022-10-05T19:54:14.178Z,16.20
2022-10-05T19:59:14.102Z,16.10
2022-10-05T20:04:14.039Z,16.02
2022-10-05T20:09:13.983Z,16.00
2022-10-05T20:14:13.918Z,15.94
2022-10-05T20:19:13.835Z,15.84
2022-10-05T20:24:13.771Z,15.73
2022-10-05T20:29:13.700Z,15.58
2022-10-05T20:34:13.622Z,15.44
2022-10-05T20:39:13.557Z,15.33
2022-10-05T20:44:13.464Z,15.24
2022-10-05T20:49:13.436Z,15.19
2022-10-05T20:54:13.335Z,15.22
2022-10-05T20:59:13.296Z,15.40
2022-10-05T21:04:13.245Z,15.40
2022-10-05T21:09:13.157Z,15.35
2022-10-05T21:14:13.098Z,15.31
2022-10-05T21:19:13.143Z,15.28
2022-10-05T21:24:12.922Z,15.35
2022-10-05T21:29:13.154Z,15.33
2022-10-05T21:34:12.806Z,15.29
2022-10-05T21:39:12.760Z,15.24
2022-10-05T21:44:12.687Z,15.22
2022-10-05T21:49:16.080Z,15.19
2022-10-05T21:54:13.549Z,15.17
2022-10-05T21:59:12.497Z,15.17
2022-10-05T22:04:12.454Z,15.18
2022-10-05T22:09:12.358Z,15.22
2022-10-05T22:14:12.271Z,15.27
2022-10-05T22:19:12.203Z,15.31
2022-10-05T22:24:12.121Z,15.59
2022-10-05T22:29:12.163Z,15.86
2022-10-05T22:34:12.027Z,15.97
2022-10-05T22:39:13.814Z,16.02
2022-10-05T22:44:11.858Z,16.02
2022-10-05T22:49:11.807Z,15.98
2022-10-05T22:54:11.792Z,15.92
2022-10-05T22:59:11.662Z,15.91
2022-10-05T23:04:11.590Z,15.86
2022-10-05T23:09:11.523Z,15.79
2022-10-05T23:14:11.452Z,15.64
2022-10-05T23:19:11.408Z,15.52
2022-10-05T23:24:11.318Z,15.44
2022-10-05T23:29:11.254Z,15.37
2022-10-05T23:34:11.196Z,15.51
2022-10-05T23:39:11.110Z,15.51
2022-10-05T23:44:11.063Z,15.54
2022-10-05T23:49:11.014Z,15.65
2022-10-05T23:54:10.907Z,15.67
2022-10-05T23:59:10.842Z,15.65
